RYR7RA LEMG-LEVC
Flight info
| Callsign | RYR7RA |
|---|---|
| Flight time | 0h 53m |
| Altitude | 30000 |
| Route | RIXUR N851 RESTU N860 NARGO |
| Aircraft | B738/M-SDE2E3FGHIRWXY/LB1 |
Departure
| Time | 2026-05-07 17:01 |
|---|---|
| Airport | Málaga-Costa del Sol Airport (LEMG) |
Arrival
| Time | 2026-05-07 17:54 |
|---|---|
| Airport | Valencia Airport (LEVC) |
| Time | Latitude | Longitude | Altitude | Speed | Heading |
|---|---|---|---|---|---|
| 2026-05-07 16:47 | 36.67867 | -4.49457 | 41 ft | 0 kts | 213° |
| 2026-05-07 16:51 | 36.67876 | -4.49449 | 41 ft | 4 kts | 217° |
| 2026-05-07 16:51 | 36.67897 | -4.49430 | 38 ft | 4 kts | 195° |
| 2026-05-07 16:51 | 36.67919 | -4.49429 | 39 ft | 4 kts | 167° |
| 2026-05-07 16:52 | 36.67944 | -4.49441 | 38 ft | 4 kts | 142° |
| 2026-05-07 16:52 | 36.67963 | -4.49464 | 41 ft | 4 kts | 124° |
| 2026-05-07 16:52 | 36.67976 | -4.49493 | 38 ft | 4 kts | 117° |
| 2026-05-07 16:52 | 36.67989 | -4.49522 | 41 ft | 4 kts | 133° |
| 2026-05-07 16:53 | 36.68006 | -4.49540 | 38 ft | 4 kts | 146° |
| 2026-05-07 16:53 | 36.68030 | -4.49556 | 39 ft | 4 kts | 164° |
| 2026-05-07 16:53 | 36.68056 | -4.49560 | 41 ft | 4 kts | 192° |
| 2026-05-07 16:53 | 36.68078 | -4.49548 | 38 ft | 2 kts | 221° |
| 2026-05-07 16:54 | 36.68079 | -4.49547 | 37 ft | 1 kts | 221° |
| 2026-05-07 16:56 | 36.68050 | -4.49574 | 38 ft | 9 kts | 217° |
| 2026-05-07 16:57 | 36.67980 | -4.49652 | 41 ft | 18 kts | 222° |
| 2026-05-07 16:57 | 36.67866 | -4.49776 | 41 ft | 24 kts | 221° |
| 2026-05-07 16:57 | 36.67802 | -4.49907 | 41 ft | 16 kts | 297° |
| 2026-05-07 16:57 | 36.67874 | -4.50010 | 41 ft | 15 kts | 311° |
| 2026-05-07 16:58 | 36.67906 | -4.50120 | 40 ft | 15 kts | 235° |
| 2026-05-07 16:58 | 36.67927 | -4.50227 | 44 ft | 14 kts | 310° |
| 2026-05-07 16:58 | 36.67998 | -4.50327 | 43 ft | 16 kts | 311° |
| 2026-05-07 16:58 | 36.68077 | -4.50437 | 43 ft | 14 kts | 308° |
| 2026-05-07 16:59 | 36.68078 | -4.50487 | 44 ft | 3 kts | 230° |
| 2026-05-07 16:59 | 36.68069 | -4.50495 | 45 ft | 5 kts | 209° |
| 2026-05-07 16:59 | 36.68020 | -4.50492 | 47 ft | 10 kts | 163° |
| 2026-05-07 17:00 | 36.67920 | -4.50446 | 50 ft | 19 kts | 157° |
| 2026-05-07 17:00 | 36.67843 | -4.50401 | 52 ft | 0 kts | 132° |
| 2026-05-07 17:00 | 36.67839 | -4.50394 | 53 ft | 6 kts | 131° |
| 2026-05-07 17:00 | 36.67643 | -4.50123 | 51 ft | 80 kts | 131° |
| 2026-05-07 17:01 | 36.67117 | -4.49385 | 49 ft | 145 kts | 131° |
| 2026-05-07 17:01 | 36.66389 | -4.48359 | 523 ft | 162 kts | 130° |
| 2026-05-07 17:01 | 36.65638 | -4.47270 | 1272 ft | 173 kts | 131° |
| 2026-05-07 17:01 | 36.64835 | -4.46103 | 2007 ft | 177 kts | 134° |
| 2026-05-07 17:02 | 36.63984 | -4.44939 | 2622 ft | 193 kts | 135° |
| 2026-05-07 17:02 | 36.63005 | -4.43604 | 2882 ft | 222 kts | 135° |
| 2026-05-07 17:02 | 36.61933 | -4.42120 | 3277 ft | 236 kts | 134° |
| 2026-05-07 17:02 | 36.60827 | -4.40573 | 3911 ft | 242 kts | 133° |
| 2026-05-07 17:03 | 36.59922 | -4.38808 | 4745 ft | 244 kts | 112° |
| 2026-05-07 17:03 | 36.59493 | -4.36776 | 5614 ft | 243 kts | 101° |
| 2026-05-07 17:03 | 36.59167 | -4.34700 | 6403 ft | 246 kts | 101° |
| 2026-05-07 17:03 | 36.58828 | -4.32602 | 7119 ft | 250 kts | 102° |
| 2026-05-07 17:04 | 36.58475 | -4.30467 | 7820 ft | 254 kts | 102° |
| 2026-05-07 17:04 | 36.58152 | -4.28287 | 8528 ft | 259 kts | 94° |
| 2026-05-07 17:04 | 36.58228 | -4.25955 | 8826 ft | 283 kts | 83° |
| 2026-05-07 17:04 | 36.58462 | -4.23454 | 9318 ft | 296 kts | 83° |
| 2026-05-07 17:05 | 36.58697 | -4.20879 | 10011 ft | 302 kts | 83° |
| 2026-05-07 17:05 | 36.58918 | -4.18261 | 10725 ft | 306 kts | 84° |
| 2026-05-07 17:05 | 36.59127 | -4.15614 | 11450 ft | 309 kts | 84° |
| 2026-05-07 17:05 | 36.59330 | -4.12930 | 12182 ft | 314 kts | 84° |
| 2026-05-07 17:06 | 36.59533 | -4.10207 | 12925 ft | 318 kts | 84° |
| 2026-05-07 17:06 | 36.59856 | -4.07470 | 13659 ft | 323 kts | 70° |
| 2026-05-07 17:06 | 36.60883 | -4.04992 | 14320 ft | 325 kts | 56° |
| 2026-05-07 17:06 | 36.62093 | -4.02578 | 14939 ft | 332 kts | 56° |
| 2026-05-07 17:07 | 36.63318 | -4.00102 | 15568 ft | 339 kts | 56° |
| 2026-05-07 17:07 | 36.64657 | -3.97666 | 16189 ft | 342 kts | 42° |
| 2026-05-07 17:07 | 36.66539 | -3.95890 | 16508 ft | 352 kts | 25° |
| 2026-05-07 17:07 | 36.68737 | -3.94350 | 16743 ft | 371 kts | 24° |
| 2026-05-07 17:08 | 36.71018 | -3.92761 | 17259 ft | 380 kts | 24° |
| 2026-05-07 17:08 | 36.73334 | -3.91115 | 17915 ft | 386 kts | 24° |
| 2026-05-07 17:08 | 36.75666 | -3.89425 | 18538 ft | 390 kts | 25° |
| 2026-05-07 17:08 | 36.78018 | -3.87710 | 19119 ft | 393 kts | 24° |
| 2026-05-07 17:09 | 36.80394 | -3.85981 | 19723 ft | 397 kts | 24° |
| 2026-05-07 17:09 | 36.82788 | -3.84231 | 20351 ft | 401 kts | 24° |
| 2026-05-07 17:09 | 36.85211 | -3.82466 | 20971 ft | 406 kts | 24° |
| 2026-05-07 17:09 | 36.87659 | -3.80684 | 21574 ft | 409 kts | 24° |
| 2026-05-07 17:10 | 36.90126 | -3.78889 | 22139 ft | 412 kts | 24° |
| 2026-05-07 17:10 | 36.92617 | -3.77077 | 22678 ft | 417 kts | 24° |
| 2026-05-07 17:10 | 36.95133 | -3.75244 | 23276 ft | 420 kts | 24° |
| 2026-05-07 17:10 | 36.97666 | -3.73394 | 23794 ft | 423 kts | 24° |
| 2026-05-07 17:11 | 37.00218 | -3.71528 | 24238 ft | 426 kts | 24° |
| 2026-05-07 17:11 | 37.02784 | -3.69649 | 24713 ft | 429 kts | 24° |
| 2026-05-07 17:11 | 37.05366 | -3.67759 | 25172 ft | 431 kts | 24° |
| 2026-05-07 17:11 | 37.07959 | -3.65861 | 25681 ft | 432 kts | 24° |
| 2026-05-07 17:12 | 37.10426 | -3.63675 | 26236 ft | 442 kts | 39° |
| 2026-05-07 17:12 | 37.12293 | -3.60576 | 26852 ft | 451 kts | 58° |
| 2026-05-07 17:12 | 37.13681 | -3.57123 | 27504 ft | 449 kts | 60° |
| 2026-05-07 17:12 | 37.15031 | -3.53589 | 28040 ft | 450 kts | 60° |
| 2026-05-07 17:13 | 37.16380 | -3.50043 | 28561 ft | 451 kts | 60° |
| 2026-05-07 17:13 | 37.17739 | -3.46508 | 29141 ft | 449 kts | 60° |
| 2026-05-07 17:13 | 37.19107 | -3.42999 | 29806 ft | 446 kts | 59° |
| 2026-05-07 17:13 | 37.20489 | -3.39490 | 29930 ft | 453 kts | 59° |
| 2026-05-07 17:14 | 37.23270 | -3.32451 | 29935 ft | 445 kts | 59° |
| 2026-05-07 17:14 | 37.26003 | -3.25503 | 29945 ft | 444 kts | 59° |
| 2026-05-07 17:15 | 37.28724 | -3.18549 | 29949 ft | 444 kts | 59° |
| 2026-05-07 17:15 | 37.31443 | -3.11578 | 29951 ft | 445 kts | 59° |
| 2026-05-07 17:16 | 37.34164 | -3.04586 | 29954 ft | 446 kts | 58° |
| 2026-05-07 17:16 | 37.36888 | -2.97573 | 29934 ft | 447 kts | 58° |
| 2026-05-07 17:17 | 37.39615 | -2.90538 | 29935 ft | 448 kts | 58° |
| 2026-05-07 17:17 | 37.42321 | -2.83541 | 29940 ft | 448 kts | 58° |
| 2026-05-07 17:18 | 37.45042 | -2.76503 | 29961 ft | 447 kts | 58° |
| 2026-05-07 17:18 | 37.47758 | -2.69466 | 29953 ft | 447 kts | 58° |
| 2026-05-07 17:19 | 37.50467 | -2.62429 | 29952 ft | 447 kts | 58° |
| 2026-05-07 17:19 | 37.53175 | -2.55377 | 29947 ft | 447 kts | 58° |
| 2026-05-07 17:20 | 37.55879 | -2.48319 | 29936 ft | 447 kts | 58° |
| 2026-05-07 17:20 | 37.58578 | -2.41257 | 29951 ft | 447 kts | 58° |
| 2026-05-07 17:21 | 37.61272 | -2.34192 | 29944 ft | 447 kts | 58° |
| 2026-05-07 17:21 | 37.63964 | -2.27120 | 29962 ft | 447 kts | 58° |
| 2026-05-07 17:22 | 37.66658 | -2.20042 | 29950 ft | 447 kts | 58° |
| 2026-05-07 17:22 | 37.69341 | -2.12968 | 29941 ft | 446 kts | 58° |
| 2026-05-07 17:23 | 37.72022 | -2.05885 | 29955 ft | 449 kts | 57° |
| 2026-05-07 17:23 | 37.74719 | -1.98750 | 29954 ft | 451 kts | 57° |
| 2026-05-07 17:24 | 37.77417 | -1.91585 | 29954 ft | 451 kts | 58° |
| 2026-05-07 17:24 | 37.80113 | -1.84409 | 29956 ft | 452 kts | 57° |
| 2026-05-07 17:25 | 37.82805 | -1.77229 | 29946 ft | 452 kts | 57° |
| 2026-05-07 17:25 | 37.85490 | -1.70049 | 29961 ft | 451 kts | 57° |
| 2026-05-07 17:26 | 37.88159 | -1.62901 | 29950 ft | 453 kts | 57° |
| 2026-05-07 17:26 | 37.91468 | -1.56333 | 29955 ft | 431 kts | 35° |
| 2026-05-07 17:27 | 37.93703 | -1.53896 | 29941 ft | 418 kts | 24° |
| 2026-05-07 17:27 | 37.96160 | -1.52074 | 29979 ft | 405 kts | 16° |
| 2026-05-07 17:27 | 38.01126 | -1.48834 | 29726 ft | 396 kts | 16° |
| 2026-05-07 17:28 | 38.03551 | -1.47243 | 29481 ft | 389 kts | 16° |
| 2026-05-07 17:28 | 38.05139 | -1.46197 | 29221 ft | 387 kts | 16° |
| 2026-05-07 17:28 | 38.08306 | -1.44100 | 28767 ft | 381 kts | 17° |
| 2026-05-07 17:28 | 38.09859 | -1.43067 | 28519 ft | 379 kts | 17° |
| 2026-05-07 17:29 | 38.12182 | -1.41520 | 28166 ft | 376 kts | 17° |
| 2026-05-07 17:29 | 38.14484 | -1.39982 | 27817 ft | 371 kts | 17° |
| 2026-05-07 17:29 | 38.16759 | -1.38459 | 27466 ft | 368 kts | 18° |
| 2026-05-07 17:29 | 38.19014 | -1.36951 | 27151 ft | 366 kts | 19° |
| 2026-05-07 17:30 | 38.21265 | -1.35444 | 26783 ft | 364 kts | 19° |
| 2026-05-07 17:30 | 38.23501 | -1.33945 | 26427 ft | 363 kts | 20° |
| 2026-05-07 17:30 | 38.25728 | -1.32449 | 26086 ft | 361 kts | 20° |
| 2026-05-07 17:30 | 38.27943 | -1.30962 | 25742 ft | 360 kts | 20° |
| 2026-05-07 17:31 | 38.30154 | -1.29475 | 25397 ft | 359 kts | 21° |
| 2026-05-07 17:31 | 38.32358 | -1.27992 | 25059 ft | 358 kts | 21° |
| 2026-05-07 17:31 | 38.34555 | -1.26513 | 24720 ft | 357 kts | 22° |
| 2026-05-07 17:31 | 38.36752 | -1.25033 | 24369 ft | 357 kts | 22° |
| 2026-05-07 17:32 | 38.38946 | -1.23554 | 24032 ft | 356 kts | 23° |
| 2026-05-07 17:32 | 38.41137 | -1.22075 | 23668 ft | 356 kts | 23° |
| 2026-05-07 17:32 | 38.43328 | -1.20595 | 23284 ft | 356 kts | 24° |
| 2026-05-07 17:32 | 38.45511 | -1.19119 | 22912 ft | 355 kts | 24° |
| 2026-05-07 17:33 | 38.47686 | -1.17647 | 22547 ft | 353 kts | 24° |
| 2026-05-07 17:33 | 38.49849 | -1.16182 | 22203 ft | 351 kts | 24° |
| 2026-05-07 17:33 | 38.51978 | -1.14738 | 22054 ft | 343 kts | 24° |
| 2026-05-07 17:33 | 38.54071 | -1.13318 | 21762 ft | 339 kts | 25° |
| 2026-05-07 17:34 | 38.56149 | -1.11909 | 21441 ft | 337 kts | 25° |
| 2026-05-07 17:34 | 38.58214 | -1.10508 | 21122 ft | 335 kts | 25° |
| 2026-05-07 17:34 | 38.60239 | -1.09134 | 20806 ft | 333 kts | 25° |
| 2026-05-07 17:34 | 38.62281 | -1.07746 | 20485 ft | 331 kts | 25° |
| 2026-05-07 17:35 | 38.64313 | -1.06365 | 20171 ft | 330 kts | 25° |
| 2026-05-07 17:35 | 38.66335 | -1.04989 | 19860 ft | 329 kts | 26° |
| 2026-05-07 17:35 | 38.68382 | -1.03596 | 19542 ft | 328 kts | 26° |
| 2026-05-07 17:35 | 38.70368 | -1.02242 | 19225 ft | 327 kts | 26° |
| 2026-05-07 17:36 | 38.72402 | -1.00856 | 18906 ft | 326 kts | 26° |
| 2026-05-07 17:36 | 38.74361 | -0.99471 | 18591 ft | 326 kts | 30° |
| 2026-05-07 17:36 | 38.76215 | -0.97786 | 18278 ft | 327 kts | 36° |
| 2026-05-07 17:36 | 38.77996 | -0.95983 | 17918 ft | 326 kts | 37° |
| 2026-05-07 17:37 | 38.79759 | -0.94157 | 17579 ft | 325 kts | 37° |
| 2026-05-07 17:37 | 38.81519 | -0.92342 | 17239 ft | 324 kts | 37° |
| 2026-05-07 17:37 | 38.83274 | -0.90548 | 16899 ft | 322 kts | 37° |
| 2026-05-07 17:37 | 38.85029 | -0.88769 | 16586 ft | 321 kts | 36° |
| 2026-05-07 17:38 | 38.86782 | -0.87002 | 16251 ft | 319 kts | 36° |
| 2026-05-07 17:38 | 38.88529 | -0.85248 | 15945 ft | 318 kts | 36° |
| 2026-05-07 17:38 | 38.90269 | -0.83503 | 15626 ft | 317 kts | 37° |
| 2026-05-07 17:38 | 38.92000 | -0.81769 | 15313 ft | 316 kts | 37° |
| 2026-05-07 17:39 | 38.93730 | -0.80037 | 14999 ft | 314 kts | 37° |
| 2026-05-07 17:39 | 38.95451 | -0.78312 | 14684 ft | 313 kts | 37° |
| 2026-05-07 17:39 | 38.97167 | -0.76592 | 14369 ft | 312 kts | 37° |
| 2026-05-07 17:39 | 38.98879 | -0.74876 | 14039 ft | 312 kts | 37° |
| 2026-05-07 17:40 | 39.00584 | -0.73167 | 13724 ft | 311 kts | 37° |
| 2026-05-07 17:40 | 39.02286 | -0.71458 | 13374 ft | 310 kts | 37° |
| 2026-05-07 17:40 | 39.03982 | -0.69755 | 13044 ft | 309 kts | 37° |
| 2026-05-07 17:40 | 39.05669 | -0.68060 | 12710 ft | 307 kts | 37° |
| 2026-05-07 17:41 | 39.07343 | -0.66376 | 12392 ft | 305 kts | 37° |
| 2026-05-07 17:41 | 39.09009 | -0.64700 | 12080 ft | 303 kts | 37° |
| 2026-05-07 17:41 | 39.10665 | -0.63033 | 11766 ft | 302 kts | 37° |
| 2026-05-07 17:41 | 39.12315 | -0.61371 | 11457 ft | 300 kts | 37° |
| 2026-05-07 17:42 | 39.13955 | -0.59718 | 11137 ft | 299 kts | 37° |
| 2026-05-07 17:42 | 39.15586 | -0.58072 | 10827 ft | 297 kts | 37° |
| 2026-05-07 17:42 | 39.17205 | -0.56438 | 10522 ft | 295 kts | 37° |
| 2026-05-07 17:42 | 39.18816 | -0.54812 | 10210 ft | 293 kts | 37° |
| 2026-05-07 17:43 | 39.20408 | -0.53203 | 10024 ft | 287 kts | 37° |
| 2026-05-07 17:43 | 39.21965 | -0.51629 | 9784 ft | 283 kts | 37° |
| 2026-05-07 17:43 | 39.23510 | -0.50066 | 9471 ft | 281 kts | 38° |
| 2026-05-07 17:43 | 39.24803 | -0.48203 | 9130 ft | 281 kts | 63° |
| 2026-05-07 17:44 | 39.25577 | -0.45896 | 8690 ft | 283 kts | 59° |
| 2026-05-07 17:44 | 39.26702 | -0.43832 | 8317 ft | 278 kts | 53° |
| 2026-05-07 17:44 | 39.27820 | -0.41832 | 7990 ft | 270 kts | 54° |
| 2026-05-07 17:44 | 39.28873 | -0.39869 | 7693 ft | 262 kts | 55° |
| 2026-05-07 17:45 | 39.29866 | -0.37985 | 7424 ft | 254 kts | 56° |
| 2026-05-07 17:45 | 39.30841 | -0.36122 | 7165 ft | 247 kts | 56° |
| 2026-05-07 17:45 | 39.31788 | -0.34311 | 6913 ft | 241 kts | 56° |
| 2026-05-07 17:45 | 39.32714 | -0.32501 | 6688 ft | 244 kts | 57° |
| 2026-05-07 17:46 | 39.33653 | -0.30632 | 6443 ft | 252 kts | 57° |
| 2026-05-07 17:46 | 39.34617 | -0.28710 | 6175 ft | 257 kts | 57° |
| 2026-05-07 17:46 | 39.35590 | -0.26772 | 5885 ft | 257 kts | 58° |
| 2026-05-07 17:46 | 39.36561 | -0.24837 | 5606 ft | 257 kts | 58° |
| 2026-05-07 17:47 | 39.37522 | -0.22921 | 5500 ft | 250 kts | 58° |
| 2026-05-07 17:47 | 39.38460 | -0.21051 | 5377 ft | 245 kts | 58° |
| 2026-05-07 17:47 | 39.39376 | -0.19226 | 5255 ft | 239 kts | 58° |
| 2026-05-07 17:47 | 39.40296 | -0.17467 | 5099 ft | 234 kts | 49° |
| 2026-05-07 17:48 | 39.41614 | -0.16340 | 4986 ft | 227 kts | 18° |
| 2026-05-07 17:48 | 39.43162 | -0.16218 | 4775 ft | 222 kts | 351° |
| 2026-05-07 17:48 | 39.44520 | -0.16986 | 4881 ft | 201 kts | 325° |
| 2026-05-07 17:48 | 39.45487 | -0.18404 | 4457 ft | 225 kts | 297° |
| 2026-05-07 17:49 | 39.45866 | -0.20432 | 4085 ft | 240 kts | 269° |
| 2026-05-07 17:49 | 39.45426 | -0.22463 | 3804 ft | 233 kts | 237° |
| 2026-05-07 17:49 | 39.44345 | -0.23950 | 3546 ft | 224 kts | 213° |
| 2026-05-07 17:49 | 39.43053 | -0.25016 | 3298 ft | 218 kts | 210° |
| 2026-05-07 17:50 | 39.41859 | -0.26143 | 3023 ft | 216 kts | 230° |
| 2026-05-07 17:50 | 39.41393 | -0.27948 | 2767 ft | 211 kts | 275° |
| 2026-05-07 17:50 | 39.41870 | -0.29689 | 2592 ft | 202 kts | 298° |
| 2026-05-07 17:50 | 39.42473 | -0.31241 | 2527 ft | 193 kts | 297° |
| 2026-05-07 17:51 | 39.43093 | -0.32779 | 2533 ft | 194 kts | 300° |
| 2026-05-07 17:51 | 39.43734 | -0.34342 | 2345 ft | 197 kts | 297° |
| 2026-05-07 17:51 | 39.44318 | -0.35888 | 2075 ft | 184 kts | 296° |
| 2026-05-07 17:51 | 39.44859 | -0.37333 | 1862 ft | 171 kts | 296° |
| 2026-05-07 17:52 | 39.45380 | -0.38722 | 1630 ft | 171 kts | 297° |
| 2026-05-07 17:52 | 39.45882 | -0.40057 | 1402 ft | 159 kts | 296° |
| 2026-05-07 17:52 | 39.46357 | -0.41323 | 1175 ft | 153 kts | 297° |
| 2026-05-07 17:52 | 39.46817 | -0.42548 | 994 ft | 151 kts | 298° |
| 2026-05-07 17:53 | 39.47269 | -0.43779 | 820 ft | 151 kts | 299° |
| 2026-05-07 17:53 | 39.47730 | -0.44990 | 617 ft | 149 kts | 298° |
| 2026-05-07 17:53 | 39.48180 | -0.46193 | 381 ft | 147 kts | 300° |
| 2026-05-07 17:53 | 39.48627 | -0.47356 | 220 ft | 138 kts | 297° |
| 2026-05-07 17:54 | 39.49005 | -0.48357 | 208 ft | 105 kts | 295° |
| 2026-05-07 17:54 | 39.49257 | -0.49017 | 214 ft | 50 kts | 296° |
| 2026-05-07 17:54 | 39.49441 | -0.49273 | 210 ft | 24 kts | 327° |
| 2026-05-07 17:54 | 39.49544 | -0.49275 | 208 ft | 13 kts | 82° |
| 2026-05-07 17:55 | 39.49516 | -0.49165 | 210 ft | 13 kts | 112° |
| 2026-05-07 17:55 | 39.49477 | -0.49064 | 212 ft | 12 kts | 116° |
| 2026-05-07 17:55 | 39.49435 | -0.48955 | 214 ft | 15 kts | 116° |
| 2026-05-07 17:55 | 39.49384 | -0.48812 | 214 ft | 20 kts | 116° |
| 2026-05-07 17:56 | 39.49315 | -0.48637 | 218 ft | 24 kts | 117° |
| 2026-05-07 17:56 | 39.49234 | -0.48429 | 213 ft | 28 kts | 116° |
| 2026-05-07 17:56 | 39.49144 | -0.48192 | 208 ft | 31 kts | 116° |
| 2026-05-07 17:56 | 39.49052 | -0.47947 | 213 ft | 23 kts | 118° |
| 2026-05-07 17:57 | 39.49054 | -0.47784 | 216 ft | 16 kts | 35° |
| 2026-05-07 17:57 | 39.49115 | -0.47743 | 213 ft | 13 kts | 38° |
| 2026-05-07 17:57 | 39.49133 | -0.47620 | 214 ft | 5 kts | 68° |
| 2026-05-07 17:57 | 39.49138 | -0.47605 | 212 ft | 0 kts | 67° |